Time;durP1;ratioP1;P1;durP2;ratioP2;P2;SDS_P1;SDS_P2;PMS_P1;PMS_P2;Temp;Humidity;BMP_temperature;BMP_pressure;BME280_temperature;BME280_humidity;BME280_pressure;Samples;Min_cycle;Max_cycle;Signal;HPM_P1;HPM_P2
2021/08/27 00:00:00;;;;;;;2.30;0.85;;;20.50;67.70;;;;;;10374180;28;20033;-48
2021/08/27 00:05:01;;;;;;;1.98;0.93;;;20.50;67.70;;;;;;10359995;28;20112;-50
2021/08/27 00:10:02;;;;;;;1.17;0.88;;;20.50;67.70;;;;;;10374029;28;20446;-48
2021/08/27 00:15:08;;;;;;;2.28;0.90;;;20.50;67.60;;;;;;10374368;28;20030;-48
2021/08/27 00:20:10;;;;;;;2.15;0.77;;;20.50;67.70;;;;;;10346327;28;20360;-49
2021/08/27 00:25:11;;;;;;;1.83;0.98;;;20.50;67.60;;;;;;10332875;28;20026;-49
2021/08/27 00:30:12;;;;;;;2.40;0.80;;;20.50;67.50;;;;;;10332943;28;20026;-48
2021/08/27 00:35:13;;;;;;;1.75;0.80;;;20.50;67.50;;;;;;10331425;28;20038;-48
2021/08/27 00:40:14;;;;;;;2.17;0.75;;;20.50;67.60;;;;;;10331923;28;20125;-48
2021/08/27 00:45:14;;;;;;;2.67;0.77;;;20.50;67.50;;;;;;10332577;28;20458;-48
2021/08/27 00:50:16;;;;;;;3.15;1.00;;;20.50;67.50;;;;;;10332289;28;20487;-49
2021/08/27 00:55:16;;;;;;;2.63;1.02;;;20.50;67.40;;;;;;10331073;28;20415;-48
2021/08/27 01:00:17;;;;;;;1.85;0.73;;;20.50;67.40;;;;;;10332004;28;20034;-49
2021/08/27 01:05:19;;;;;;;2.97;0.82;;;20.40;67.40;;;;;;10331983;28;20037;-48
2021/08/27 01:10:39;;;;;;;1.00;0.65;;;20.40;67.40;;;;;;10331825;28;20549;-48
2021/08/27 01:16:11;;;;;;;1.50;0.70;;;20.50;67.30;;;;;;10331816;28;20030;-48
2021/08/27 01:22:04;;;;;;;3.55;1.30;;;20.40;67.30;;;;;;10334551;28;20056;-48
2021/08/27 01:27:09;;;;;;;2.30;0.93;;;20.40;67.20;;;;;;10331575;28;20110;-49
2021/08/27 01:32:29;;;;;;;2.45;0.98;;;20.40;67.30;;;;;;10331215;28;20034;-50
2021/08/27 01:37:32;;;;;;;2.47;0.95;;;20.40;67.30;;;;;;10329950;28;20034;-50
2021/08/27 01:42:34;;;;;;;3.78;1.05;;;20.40;67.20;;;;;;10329857;28;20050;-52
2021/08/27 01:47:37;;;;;;;1.48;0.68;;;20.40;67.20;;;;;;10330952;28;20026;-51
2021/08/27 01:52:40;;;;;;;2.58;0.70;;;20.40;67.20;;;;;;10332337;28;20038;-50
2021/08/27 01:57:43;;;;;;;4.65;1.05;;;20.40;67.30;;;;;;10336891;28;20397;-49
2021/08/27 02:02:46;;;;;;;2.03;0.88;;;20.40;67.30;;;;;;10338192;28;20035;-49
2021/08/27 02:07:48;;;;;;;1.88;0.70;;;20.40;67.20;;;;;;10336549;28;20092;-51
2021/08/27 02:12:49;;;;;;;4.03;0.90;;;20.40;67.00;;;;;;10336484;28;20030;-51
2021/08/27 02:17:51;;;;;;;2.03;1.02;;;20.40;67.20;;;;;;10341029;28;20076;-51
2021/08/27 02:22:53;;;;;;;1.30;0.60;;;20.40;67.20;;;;;;10336156;28;20456;-49
2021/08/27 02:27:55;;;;;;;2.55;0.90;;;20.40;67.80;;;;;;10336240;28;20027;-52
2021/08/27 02:32:58;;;;;;;1.17;0.60;;;20.30;67.10;;;;;;10336186;28;20034;-51
2021/08/27 02:37:59;;;;;;;2.13;0.95;;;20.30;67.10;;;;;;10336816;28;20026;-49
2021/08/27 02:43:00;;;;;;;3.38;0.90;;;20.30;67.20;;;;;;10335347;28;20050;-49
2021/08/27 02:48:01;;;;;;;2.20;0.95;;;20.30;67.10;;;;;;10336283;28;20105;-49
2021/08/27 02:53:19;;;;;;;2.17;0.80;;;20.30;67.10;;;;;;10336368;28;20527;-48
2021/08/27 02:58:27;;;;;;;2.33;1.02;;;20.30;67.10;;;;;;10335949;28;20038;-48
2021/08/27 03:03:37;;;;;;;3.55;0.82;;;20.30;67.10;;;;;;10334643;28;20026;-47
2021/08/27 03:08:44;;;;;;;1.65;0.85;;;20.30;67.10;;;;;;10335628;28;20034;-52
2021/08/27 03:13:55;;;;;;;2.10;0.70;;;20.30;67.10;;;;;;10335489;28;20065;-50
2021/08/27 03:19:05;;;;;;;1.70;0.80;;;20.30;67.20;;;;;;10336624;28;20038;-49
2021/08/27 03:24:31;;;;;;;2.17;0.80;;;20.30;67.10;;;;;;10333898;28;20034;-50
2021/08/27 03:29:43;;;;;;;2.60;0.90;;;20.30;67.10;;;;;;10334931;28;20483;-49
2021/08/27 03:34:45;;;;;;;2.85;0.60;;;20.30;67.20;;;;;;10333854;28;20041;-49
2021/08/27 03:39:47;;;;;;;2.83;1.05;;;20.30;67.20;;;;;;10333257;28;20482;-51
2021/08/27 03:44:49;;;;;;;1.08;0.63;;;20.30;67.20;;;;;;10332960;28;20050;-51
2021/08/27 03:49:50;;;;;;;1.83;0.85;;;20.20;67.20;;;;;;10333008;28;20442;-48
2021/08/27 03:54:51;;;;;;;2.75;1.30;;;20.20;67.30;;;;;;10332645;28;20113;-48
2021/08/27 03:59:52;;;;;;;2.35;0.82;;;20.20;67.20;;;;;;10316259;28;20054;-49
2021/08/27 04:05:14;;;;;;;2.72;1.17;;;20.20;67.20;;;;;;10333542;28;20479;-48
2021/08/27 04:10:19;;;;;;;1.48;0.70;;;20.20;67.20;;;;;;10333533;28;20022;-49
2021/08/27 04:15:23;;;;;;;3.92;0.77;;;20.20;67.30;;;;;;10332564;28;20026;-49
2021/08/27 04:20:23;;;;;;;1.50;0.80;;;20.20;67.30;;;;;;10336269;28;20027;-52
2021/08/27 04:25:24;;;;;;;1.98;0.80;;;20.20;67.30;;;;;;10332761;28;20049;-48
2021/08/27 04:30:25;;;;;;;1.00;0.50;;;20.20;67.40;;;;;;10332893;28;20566;-48
2021/08/27 04:35:26;;;;;;;1.50;0.70;;;20.20;67.40;;;;;;10332128;28;20442;-49
2021/08/27 04:40:27;;;;;;;2.22;0.70;;;20.20;68.00;;;;;;10329457;28;20080;-52
2021/08/27 04:45:27;;;;;;;2.10;1.08;;;20.20;67.30;;;;;;10330619;28;20047;-49
2021/08/27 04:50:28;;;;;;;1.83;0.70;;;20.20;67.40;;;;;;10332618;28;20030;-49
2021/08/27 04:55:29;;;;;;;2.20;0.88;;;20.20;67.40;;;;;;10332727;28;20030;-49
2021/08/27 05:00:30;;;;;;;1.70;0.80;;;20.20;67.40;;;;;;10332284;28;20121;-49
2021/08/27 05:05:30;;;;;;;1.85;0.80;;;20.20;67.50;;;;;;10332484;28;20471;-52
2021/08/27 05:10:31;;;;;;;1.77;0.80;;;20.10;67.40;;;;;;10332061;28;20513;-49
2021/08/27 05:15:32;;;;;;;1.52;0.82;;;20.20;67.50;;;;;;10330978;28;20117;-49
2021/08/27 05:20:32;;;;;;;1.55;0.68;;;20.20;67.50;;;;;;10333343;28;20060;-48
2021/08/27 05:25:33;;;;;;;1.42;0.75;;;20.10;67.50;;;;;;10331844;28;20169;-49
2021/08/27 05:30:34;;;;;;;1.95;0.80;;;20.10;67.50;;;;;;10339691;28;20030;-47
2021/08/27 05:35:35;;;;;;;2.42;1.05;;;20.20;67.60;;;;;;10339608;28;20041;-49
2021/08/27 05:40:35;;;;;;;1.75;0.77;;;20.10;67.60;;;;;;10339369;28;20394;-49
2021/08/27 05:45:36;;;;;;;1.40;0.80;;;20.10;67.60;;;;;;10339523;28;20065;-48
2021/08/27 05:50:37;;;;;;;1.77;0.65;;;20.20;67.70;;;;;;10339318;28;20108;-48
2021/08/27 05:55:37;;;;;;;1.67;0.90;;;20.10;67.60;;;;;;10338976;28;20113;-50
2021/08/27 06:00:38;;;;;;;1.85;0.80;;;20.10;67.60;;;;;;10350301;28;20034;-48
2021/08/27 06:05:39;;;;;;;1.67;0.80;;;20.10;67.70;;;;;;10337553;28;20026;-49
2021/08/27 06:10:40;;;;;;;2.33;0.82;;;20.10;67.70;;;;;;10338225;28;20125;-48
2021/08/27 06:15:43;;;;;;;1.52;0.70;;;20.10;67.70;;;;;;10338216;28;20616;-49
2021/08/27 06:20:44;;;;;;;2.00;0.70;;;20.10;67.70;;;;;;10339894;28;20024;-49
2021/08/27 06:25:45;;;;;;;1.75;0.70;;;20.10;67.70;;;;;;10337803;28;20019;-50
2021/08/27 06:30:46;;;;;;;2.10;0.73;;;20.10;67.70;;;;;;10337711;28;20088;-49
2021/08/27 06:35:47;;;;;;;2.53;0.70;;;20.10;67.70;;;;;;10337508;28;20109;-49
2021/08/27 06:41:00;;;;;;;2.03;0.82;;;20.10;67.70;;;;;;10336162;28;20037;-51
2021/08/27 06:46:06;;;;;;;1.20;0.70;;;20.10;67.80;;;;;;10337495;28;20022;-48
2021/08/27 06:51:07;;;;;;;0.75;0.55;;;20.10;67.80;;;;;;10337330;28;20137;-48
2021/08/27 06:56:08;;;;;;;1.55;0.75;;;20.10;67.80;;;;;;10337122;28;20781;-50
2021/08/27 07:01:09;;;;;;;2.20;0.70;;;20.10;67.90;;;;;;10336445;28;20039;-51
2021/08/27 07:06:09;;;;;;;1.85;0.88;;;20.10;67.90;;;;;;10336586;28;20109;-50
2021/08/27 07:11:11;;;;;;;2.63;0.82;;;20.10;67.80;;;;;;10336225;28;20088;-49
2021/08/27 07:16:13;;;;;;;2.47;0.80;;;20.10;67.80;;;;;;10335870;28;20029;-51
2021/08/27 07:21:14;;;;;;;2.53;0.82;;;20.10;67.80;;;;;;10338807;28;20085;-48
2021/08/27 07:26:14;;;;;;;1.67;0.85;;;20.10;67.80;;;;;;10334479;28;20125;-52
2021/08/27 07:31:15;;;;;;;1.42;0.50;;;20.10;67.80;;;;;;10335466;28;20041;-51
2021/08/27 07:36:16;;;;;;;2.08;0.68;;;20.10;67.80;;;;;;10335349;28;20038;-49
2021/08/27 07:41:16;;;;;;;0.47;0.30;;;20.10;67.80;;;;;;10334884;28;20073;-48
2021/08/27 07:46:17;;;;;;;2.00;0.95;;;20.10;67.80;;;;;;10334748;28;20061;-48
2021/08/27 07:51:18;;;;;;;2.45;0.80;;;20.10;67.80;;;;;;10334438;28;20097;-49
2021/08/27 07:56:18;;;;;;;2.38;0.70;;;20.10;67.80;;;;;;10334235;28;20483;-47
2021/08/27 08:01:19;;;;;;;2.35;0.68;;;20.10;67.80;;;;;;10334359;28;20442;-48
2021/08/27 08:06:20;;;;;;;1.40;0.80;;;20.10;67.90;;;;;;10334326;28;20049;-48
2021/08/27 08:11:21;;;;;;;2.42;0.90;;;20.10;68.00;;;;;;10333878;28;20034;-49
2021/08/27 08:16:21;;;;;;;1.70;0.77;;;20.10;68.00;;;;;;10334059;28;20061;-52
2021/08/27 08:21:25;;;;;;;1.17;0.68;;;20.10;68.10;;;;;;10337298;28;20065;-47
2021/08/27 08:26:26;;;;;;;2.03;0.70;;;20.10;68.10;;;;;;10333357;28;20035;-48
2021/08/27 08:31:28;;;;;;;1.98;0.77;;;20.10;68.20;;;;;;10333338;28;20111;-50
2021/08/27 08:36:29;;;;;;;1.42;0.50;;;20.10;68.20;;;;;;10332886;28;20054;-48
2021/08/27 08:41:30;;;;;;;1.70;0.85;;;20.10;68.40;;;;;;10332934;28;20440;-50
2021/08/27 08:46:30;;;;;;;1.33;0.75;;;20.10;68.40;;;;;;10332832;28;20058;-48
2021/08/27 08:51:34;;;;;;;1.80;0.88;;;20.10;68.40;;;;;;10331620;28;20833;-47
2021/08/27 08:56:36;;;;;;;1.83;0.77;;;20.10;68.50;;;;;;10332779;28;20059;-47
2021/08/27 09:01:37;;;;;;;1.48;0.70;;;20.10;68.60;;;;;;10334810;28;20113;-48
2021/08/27 09:06:38;;;;;;;1.30;0.47;;;20.20;68.70;;;;;;10351179;28;20125;-48
2021/08/27 09:11:38;;;;;;;1.83;0.95;;;20.20;68.70;;;;;;10385301;28;20087;-48
2021/08/27 09:16:39;;;;;;;3.53;0.70;;;20.20;68.70;;;;;;10385546;28;20105;-47
2021/08/27 09:21:48;;;;;;;1.67;0.77;;;20.20;68.70;;;;;;10347613;28;20105;-48
2021/08/27 09:26:58;;;;;;;2.53;1.13;;;20.20;68.60;;;;;;10345596;28;20089;-48
2021/08/27 09:32:00;;;;;;;1.30;0.73;;;20.30;68.60;;;;;;10345821;28;20091;-48
2021/08/27 09:37:00;;;;;;;1.58;0.65;;;20.30;68.60;;;;;;10345405;28;20546;-47
2021/08/27 09:42:02;;;;;;;2.25;0.95;;;20.30;68.60;;;;;;10344236;28;20097;-48
2021/08/27 09:47:07;;;;;;;2.15;0.88;;;20.30;68.60;;;;;;10344220;28;20030;-50
2021/08/27 09:52:12;;;;;;;2.03;0.65;;;20.30;68.50;;;;;;10345332;28;20046;-48
2021/08/27 09:57:13;;;;;;;2.38;0.82;;;20.30;68.60;;;;;;10344686;28;20026;-47
2021/08/27 10:02:24;;;;;;;2.15;0.73;;;20.30;68.70;;;;;;10344955;28;20027;-48
2021/08/27 10:07:40;;;;;;;2.17;1.00;;;20.30;68.60;;;;;;10345102;28;20050;-49
2021/08/27 10:12:44;;;;;;;1.80;1.00;;;20.30;68.50;;;;;;10371125;28;20093;-49
2021/08/27 10:17:44;;;;;;;2.10;0.70;;;20.30;68.60;;;;;;10352631;28;20019;-48
2021/08/27 10:22:45;;;;;;;1.40;0.68;;;20.30;68.60;;;;;;10338550;28;20586;-50
2021/08/27 10:27:48;;;;;;;2.58;0.80;;;20.30;68.70;;;;;;10338031;28;20078;-48
2021/08/27 10:32:50;;;;;;;2.95;1.00;;;20.30;68.70;;;;;;10320733;28;20473;-49
2021/08/27 10:37:52;;;;;;;1.80;0.73;;;20.30;68.90;;;;;;10337627;28;20109;-49
2021/08/27 10:42:59;;;;;;;2.17;0.90;;;20.30;69.10;;;;;;10336172;28;20523;-48
2021/08/27 10:48:16;;;;;;;1.88;1.23;;;20.30;69.10;;;;;;10337386;28;20038;-48
2021/08/27 10:53:35;;;;;;;2.28;0.82;;;20.40;69.00;;;;;;10337067;28;20033;-48
2021/08/27 10:58:51;;;;;;;1.85;0.90;;;20.40;69.00;;;;;;10337083;28;20033;-48
2021/08/27 11:04:13;;;;;;;1.23;0.60;;;20.50;69.00;;;;;;10336852;28;20049;-48
2021/08/27 11:09:26;;;;;;;1.60;0.52;;;20.60;68.90;;;;;;10364179;28;20030;-48
2021/08/27 11:14:27;;;;;;;1.35;0.57;;;20.60;68.90;;;;;;10345553;28;20038;-49
2021/08/27 11:19:41;;;;;;;1.48;0.70;;;20.70;68.80;;;;;;10336031;28;20113;-48
2021/08/27 11:25:01;;;;;;;1.90;0.75;;;20.60;68.90;;;;;;10335611;28;20023;-48
2021/08/27 11:30:31;;;;;;;2.53;1.10;;;20.60;69.00;;;;;;10348108;28;20030;-48
2021/08/27 11:35:45;;;;;;;1.75;1.35;;;20.70;69.00;;;;;;10365004;28;20101;-52
2021/08/27 11:40:46;;;;;;;1.63;0.80;;;20.60;69.00;;;;;;10375695;28;20048;-48
2021/08/27 11:45:47;;;;;;;2.60;0.70;;;20.70;69.00;;;;;;10375853;28;20371;-51
2021/08/27 11:50:55;;;;;;;2.28;0.98;;;20.70;68.90;;;;;;10375455;28;20036;-48
2021/08/27 11:55:56;;;;;;;1.33;0.75;;;20.70;68.90;;;;;;10374217;28;20057;-48
2021/08/27 12:00:57;;;;;;;1.50;0.70;;;20.70;68.90;;;;;;10347521;28;20026;-48
2021/08/27 12:05:57;;;;;;;1.40;0.90;;;20.70;69.00;;;;;;10374856;28;20076;-48
2021/08/27 12:10:58;;;;;;;1.45;0.80;;;20.80;68.90;;;;;;10373577;28;20026;-48
2021/08/27 12:16:08;;;;;;;2.30;0.90;;;20.70;68.70;;;;;;10374452;28;20760;-48
2021/08/27 12:21:17;;;;;;;3.25;1.17;;;20.70;68.70;;;;;;10338361;28;20026;-48
2021/08/27 12:26:22;;;;;;;1.92;0.77;;;20.70;68.80;;;;;;10333718;28;20033;-48
2021/08/27 12:31:23;;;;;;;1.38;0.70;;;20.70;68.90;;;;;;10334202;28;20030;-49
2021/08/27 12:36:24;;;;;;;3.83;1.10;;;20.70;68.90;;;;;;10332502;28;20054;-47
2021/08/27 12:41:29;;;;;;;2.13;0.70;;;20.70;68.90;;;;;;10332169;28;20053;-48
2021/08/27 12:46:31;;;;;;;2.00;0.90;;;20.60;69.10;;;;;;10361271;28;20438;-49
2021/08/27 12:51:32;;;;;;;3.13;0.77;;;20.70;69.00;;;;;;10373576;28;20057;-50
2021/08/27 12:56:33;;;;;;;2.28;0.63;;;20.70;69.00;;;;;;10373267;28;20026;-49
2021/08/27 13:01:33;;;;;;;2.05;0.73;;;20.80;68.90;;;;;;10373245;28;20033;-50
2021/08/27 13:06:49;;;;;;;1.38;0.70;;;20.70;68.90;;;;;;10373264;28;20054;-48
2021/08/27 13:11:56;;;;;;;2.17;0.88;;;20.80;68.80;;;;;;10373515;28;20378;-48
2021/08/27 13:17:14;;;;;;;1.63;0.88;;;20.80;68.80;;;;;;10371310;28;20041;-49
2021/08/27 13:22:22;;;;;;;2.50;1.00;;;20.80;68.60;;;;;;10358929;28;20108;-47
2021/08/27 13:27:24;;;;;;;2.45;1.33;;;20.80;68.50;;;;;;10360061;28;20437;-52
2021/08/27 13:32:39;;;;;;;2.38;1.23;;;20.80;68.60;;;;;;10354023;28;20034;-50
2021/08/27 13:37:41;;;;;;;4.32;1.25;;;20.70;68.70;;;;;;10331837;28;20471;-49
2021/08/27 13:42:42;;;;;;;2.53;1.00;;;20.70;68.80;;;;;;10331804;28;20357;-49
2021/08/27 13:47:44;;;;;;;1.92;1.30;;;20.70;68.80;;;;;;10333123;28;20023;-52
2021/08/27 13:52:47;;;;;;;2.50;1.08;;;20.60;68.80;;;;;;10339423;28;20053;-48
2021/08/27 13:57:48;;;;;;;1.88;0.90;;;20.70;68.90;;;;;;10339165;28;20495;-48
2021/08/27 14:02:49;;;;;;;2.05;1.00;;;20.70;68.90;;;;;;10337777;28;20125;-48
2021/08/27 14:07:50;;;;;;;3.40;1.20;;;20.70;68.80;;;;;;10338987;28;20173;-48
2021/08/27 14:12:50;;;;;;;2.85;1.25;;;20.80;68.80;;;;;;10338878;28;20038;-48
2021/08/27 14:17:51;;;;;;;3.58;1.10;;;20.70;68.70;;;;;;10341044;28;20109;-48
2021/08/27 14:22:52;;;;;;;2.45;1.17;;;20.70;68.70;;;;;;10337121;28;20117;-48
2021/08/27 14:27:53;;;;;;;3.00;1.05;;;20.70;68.80;;;;;;10338146;28;20034;-48
2021/08/27 14:32:54;;;;;;;2.22;0.90;;;20.70;68.70;;;;;;10338108;28;20034;-48
2021/08/27 14:37:54;;;;;;;2.35;0.90;;;20.70;68.70;;;;;;10337632;28;20069;-48
2021/08/27 14:42:55;;;;;;;3.30;1.50;;;20.70;68.70;;;;;;10336464;28;20054;-47
2021/08/27 14:47:56;;;;;;;8.10;1.52;;;20.70;68.60;;;;;;10337358;28;20125;-49
2021/08/27 14:52:56;;;;;;;4.30;1.30;;;20.70;68.70;;;;;;10337150;28;20037;-47
2021/08/27 14:57:57;;;;;;;1.83;1.05;;;20.70;68.60;;;;;;10337203;28;20169;-48
2021/08/27 15:02:59;;;;;;;1.55;0.90;;;20.70;68.60;;;;;;10335971;28;20113;-52
2021/08/27 15:08:00;;;;;;;1.70;0.90;;;20.70;68.60;;;;;;10336669;28;20049;-48
2021/08/27 15:13:02;;;;;;;2.92;0.80;;;20.70;68.60;;;;;;10336271;28;20028;-47
2021/08/27 15:18:03;;;;;;;3.53;1.10;;;20.70;68.70;;;;;;10337473;28;20030;-47
2021/08/27 15:23:03;;;;;;;2.97;1.08;;;20.70;68.70;;;;;;10336058;28;20026;-49
2021/08/27 15:28:04;;;;;;;2.22;1.17;;;20.70;68.70;;;;;;10335894;28;20031;-48
2021/08/27 15:33:05;;;;;;;1.92;0.90;;;20.70;68.60;;;;;;10335886;28;20529;-48
2021/08/27 15:38:06;;;;;;;2.80;1.48;;;20.70;68.70;;;;;;10335324;28;20087;-49
2021/08/27 15:43:06;;;;;;;2.50;1.38;;;20.70;68.70;;;;;;10334130;28;20517;-50
2021/08/27 15:48:07;;;;;;;2.88;1.00;;;20.60;68.70;;;;;;10335104;28;20054;-47
2021/08/27 15:53:08;;;;;;;2.40;1.08;;;20.60;68.60;;;;;;10334957;28;20031;-47
2021/08/27 15:58:09;;;;;;;2.70;1.50;;;20.60;68.70;;;;;;10334727;28;20184;-47
2021/08/27 16:03:10;;;;;;;3.75;1.40;;;20.60;68.60;;;;;;10334267;28;20098;-49
2021/08/27 16:08:14;;;;;;;2.38;0.98;;;20.60;68.50;;;;;;10332967;28;20058;-49
2021/08/27 16:13:16;;;;;;;3.40;1.42;;;20.60;68.50;;;;;;10333251;28;20482;-50
2021/08/27 16:18:17;;;;;;;2.80;1.02;;;20.60;68.50;;;;;;10334724;28;20182;-53
2021/08/27 16:23:18;;;;;;;2.80;1.20;;;20.60;68.50;;;;;;10333751;28;20146;-50
2021/08/27 16:28:19;;;;;;;4.38;1.90;;;20.60;68.50;;;;;;10332454;28;20039;-50
2021/08/27 16:33:20;;;;;;;6.38;1.58;;;20.60;68.50;;;;;;10333612;28;20391;-51
2021/08/27 16:38:20;;;;;;;4.80;1.58;;;20.60;68.50;;;;;;10333122;28;20030;-49
2021/08/27 16:43:21;;;;;;;3.60;1.30;;;20.60;68.50;;;;;;10333043;28;20542;-49
2021/08/27 16:48:22;;;;;;;2.05;1.08;;;20.60;68.50;;;;;;10333145;28;20054;-50
2021/08/27 16:53:23;;;;;;;2.22;1.23;;;20.60;68.50;;;;;;10333413;28;20030;-48
2021/08/27 16:58:23;;;;;;;3.53;1.20;;;20.60;68.50;;;;;;10332725;28;20065;-49
2021/08/27 17:03:24;;;;;;;2.22;1.20;;;20.60;68.50;;;;;;10332626;28;20506;-51
2021/08/27 17:08:26;;;;;;;2.33;1.20;;;20.60;68.40;;;;;;10333167;28;20109;-49
2021/08/27 17:13:27;;;;;;;4.55;1.42;;;20.60;68.50;;;;;;10332442;28;20037;-52
2021/08/27 17:18:27;;;;;;;3.38;1.13;;;20.60;68.50;;;;;;10335211;28;20037;-49
2021/08/27 17:23:28;;;;;;;4.47;1.50;;;20.60;68.40;;;;;;10335063;28;20116;-50
2021/08/27 17:28:29;;;;;;;2.78;0.88;;;20.60;68.50;;;;;;10340607;28;20041;-49
2021/08/27 17:33:30;;;;;;;1.58;0.80;;;20.50;68.30;;;;;;10340613;28;20113;-51
2021/08/27 17:38:31;;;;;;;2.63;0.90;;;20.50;68.40;;;;;;10339884;28;20049;-50
2021/08/27 17:43:32;;;;;;;2.78;0.93;;;20.50;68.30;;;;;;10351745;28;20073;-49
2021/08/27 17:48:33;;;;;;;4.75;1.40;;;20.50;68.30;;;;;;10339812;28;20105;-50
2021/08/27 17:53:33;;;;;;;3.45;1.02;;;20.50;68.30;;;;;;10338238;28;20436;-48
2021/08/27 17:58:34;;;;;;;4.00;1.35;;;20.50;68.30;;;;;;10339124;28;20113;-50
2021/08/27 18:03:35;;;;;;;3.15;1.10;;;20.50;68.30;;;;;;10337923;28;20173;-50
2021/08/27 18:08:35;;;;;;;1.77;1.23;;;20.50;68.40;;;;;;10339555;28;20493;-49
2021/08/27 18:13:36;;;;;;;2.15;0.90;;;20.50;68.40;;;;;;10338646;28;20061;-52
2021/08/27 18:18:39;;;;;;;2.42;1.23;;;20.50;68.40;;;;;;10341807;28;20061;-52
2021/08/27 18:23:40;;;;;;;2.75;1.08;;;20.50;68.40;;;;;;10338402;28;20018;-49
2021/08/27 18:28:40;;;;;;;1.77;0.98;;;20.50;68.40;;;;;;10338133;28;20030;-52
2021/08/27 18:33:41;;;;;;;3.15;1.10;;;20.50;68.50;;;;;;10337557;28;20023;-51
2021/08/27 18:38:42;;;;;;;3.80;1.60;;;20.50;68.40;;;;;;10336301;28;20133;-51
2021/08/27 18:43:43;;;;;;;4.07;1.27;;;20.50;68.40;;;;;;10337843;28;20590;-52
2021/08/27 18:48:43;;;;;;;3.67;1.00;;;20.50;68.40;;;;;;10337548;28;20030;-49
2021/08/27 18:53:44;;;;;;;3.83;1.08;;;20.50;68.40;;;;;;10337462;28;20085;-51
2021/08/27 18:58:45;;;;;;;1.98;0.90;;;20.50;68.50;;;;;;10337076;28;20030;-49
2021/08/27 19:03:45;;;;;;;3.53;1.30;;;20.50;68.50;;;;;;10336958;28;20062;-49
2021/08/27 19:08:46;;;;;;;2.97;1.00;;;20.50;68.40;;;;;;10336982;28;20030;-50
2021/08/27 19:13:47;;;;;;;4.53;1.35;;;20.50;68.50;;;;;;10336261;28;20031;-50
2021/08/27 19:18:48;;;;;;;3.72;1.17;;;20.50;68.50;;;;;;10338328;28;20495;-49
2021/08/27 19:23:48;;;;;;;3.45;1.42;;;20.50;68.50;;;;;;10336123;28;20061;-49
2021/08/27 19:28:50;;;;;;;2.35;1.10;;;20.50;68.50;;;;;;10334274;28;20030;-52
2021/08/27 19:33:51;;;;;;;2.00;1.08;;;20.50;68.50;;;;;;10335291;28;20030;-50
2021/08/27 19:38:52;;;;;;;3.40;1.50;;;20.50;68.50;;;;;;10335065;28;20125;-52
2021/08/27 19:43:52;;;;;;;3.25;1.40;;;20.50;68.50;;;;;;10334578;28;20117;-48
2021/08/27 19:48:53;;;;;;;3.10;1.30;;;20.50;68.50;;;;;;10334411;28;20031;-49
2021/08/27 19:53:54;;;;;;;4.00;1.20;;;20.50;68.50;;;;;;10334391;28;20080;-50
2021/08/27 19:58:55;;;;;;;2.35;1.10;;;20.50;68.50;;;;;;10334053;28;20384;-51
2021/08/27 20:03:56;;;;;;;3.67;0.95;;;20.50;68.50;;;;;;10333229;28;20041;-48
2021/08/27 20:08:56;;;;;;;2.08;1.27;;;20.50;68.50;;;;;;10333907;28;20495;-49
2021/08/27 20:13:57;;;;;;;2.25;1.27;;;20.50;68.60;;;;;;10333990;28;20038;-50
2021/08/27 20:18:57;;;;;;;2.50;1.45;;;20.50;68.60;;;;;;10335892;28;20113;-48
2021/08/27 20:23:59;;;;;;;2.85;1.13;;;20.50;68.60;;;;;;10333374;28;20034;-48
2021/08/27 20:28:59;;;;;;;2.78;1.33;;;20.50;68.60;;;;;;10315730;28;20441;-50
2021/08/27 20:34:00;;;;;;;2.38;0.80;;;20.50;68.60;;;;;;10333200;28;20061;-50
2021/08/27 20:39:01;;;;;;;2.45;0.85;;;20.50;68.60;;;;;;10332788;28;20483;-48
2021/08/27 20:44:04;;;;;;;2.92;1.05;;;20.50;68.60;;;;;;10332556;28;20042;-49
2021/08/27 20:49:05;;;;;;;5.28;1.45;;;20.50;68.60;;;;;;10332574;28;20077;-49
2021/08/27 20:54:05;;;;;;;2.63;1.30;;;20.50;68.60;;;;;;10332638;28;20081;-48
2021/08/27 20:59:07;;;;;;;5.25;1.40;;;20.50;68.60;;;;;;10331831;28;20080;-49
2021/08/27 21:04:08;;;;;;;2.35;1.13;;;20.40;68.60;;;;;;10332129;28;20415;-48
2021/08/27 21:09:09;;;;;;;2.60;1.33;;;20.40;68.60;;;;;;10332386;28;20030;-49
2021/08/27 21:14:10;;;;;;;3.30;1.30;;;20.40;68.60;;;;;;10344665;28;20088;-50
2021/08/27 21:19:10;;;;;;;2.72;1.17;;;20.40;68.60;;;;;;10334193;28;20084;-48
2021/08/27 21:24:15;;;;;;;2.72;1.08;;;20.40;68.60;;;;;;10331906;28;20023;-48
2021/08/27 21:29:16;;;;;;;3.40;1.38;;;20.40;68.60;;;;;;10332286;28;20030;-49
2021/08/27 21:34:16;;;;;;;3.33;1.42;;;20.40;68.60;;;;;;10331753;28;20062;-48
2021/08/27 21:39:17;;;;;;;1.77;0.90;;;20.40;68.60;;;;;;10330343;28;20026;-49
2021/08/27 21:44:18;;;;;;;3.42;1.13;;;20.40;68.70;;;;;;10331236;28;20126;-49
2021/08/27 21:49:18;;;;;;;2.85;1.10;;;20.40;68.80;;;;;;10331369;28;20031;-51
2021/08/27 21:54:19;;;;;;;3.75;1.40;;;20.40;68.80;;;;;;10331251;28;20450;-52
2021/08/27 21:59:20;;;;;;;2.63;1.35;;;20.40;68.90;;;;;;10331126;28;20113;-49
2021/08/27 22:04:20;;;;;;;1.42;0.85;;;20.40;68.80;;;;;;10331594;28;20041;-53
2021/08/27 22:09:21;;;;;;;4.07;1.73;;;20.40;68.80;;;;;;10333306;28;20032;-49
2021/08/27 22:14:22;;;;;;;3.25;1.55;;;20.50;68.90;;;;;;10338504;28;20037;-49
2021/08/27 22:19:22;;;;;;;2.55;1.40;;;20.40;68.90;;;;;;10341495;28;20031;-48
2021/08/27 22:24:23;;;;;;;2.80;1.35;;;20.40;69.00;;;;;;10337906;28;20084;-51
2021/08/27 22:29:24;;;;;;;2.75;1.23;;;20.40;69.00;;;;;;10337722;28;20039;-51
2021/08/27 22:34:24;;;;;;;2.75;1.25;;;20.40;69.00;;;;;;10337696;28;20034;-50
2021/08/27 22:39:25;;;;;;;2.13;1.13;;;20.40;69.10;;;;;;10337271;28;20034;-50
2021/08/27 22:44:26;;;;;;;3.20;1.17;;;20.40;69.00;;;;;;10336909;28;20042;-50
2021/08/27 22:49:27;;;;;;;4.40;1.38;;;20.40;69.10;;;;;;10337641;28;20110;-51
2021/08/27 22:54:27;;;;;;;2.65;1.35;;;20.40;69.00;;;;;;10336869;28;20501;-49
2021/08/27 22:59:28;;;;;;;3.45;1.75;;;20.40;69.10;;;;;;10336501;28;20065;-50
2021/08/27 23:04:28;;;;;;;2.28;1.40;;;20.40;69.70;;;;;;10348666;28;20113;-50
2021/08/27 23:09:29;;;;;;;2.92;1.52;;;20.40;69.20;;;;;;10336250;28;20495;-49
2021/08/27 23:14:30;;;;;;;2.72;1.35;;;20.40;69.10;;;;;;10335909;28;20502;-48
2021/08/27 23:19:31;;;;;;;2.80;1.35;;;20.40;69.10;;;;;;10337268;28;20112;-50
2021/08/27 23:24:31;;;;;;;2.65;1.02;;;20.40;69.10;;;;;;10334154;28;20058;-50
2021/08/27 23:29:32;;;;;;;4.40;1.80;;;20.30;69.00;;;;;;10335448;28;20125;-50
2021/08/27 23:34:33;;;;;;;3.63;1.45;;;20.30;69.00;;;;;;10334475;28;20102;-50
2021/08/27 23:39:33;;;;;;;2.65;1.40;;;20.30;69.00;;;;;;10334874;28;20061;-49
2021/08/27 23:44:34;;;;;;;2.38;1.20;;;20.40;69.10;;;;;;10334647;28;20042;-52
2021/08/27 23:49:35;;;;;;;2.83;1.30;;;20.30;69.20;;;;;;10335088;28;20085;-49
2021/08/27 23:54:35;;;;;;;3.55;1.33;;;20.30;69.20;;;;;;10334473;28;20065;-48
2021/08/27 23:59:36;;;;;;;2.42;1.38;;;20.30;69.20;;;;;;10332891;28;20238;-49
